Weather at DKPA Landing

Public forecast

Using degrees Fahrenheit for public forecast. Weather courtesy of forecast.io.

Closest aviation weather report (METAR) to DKPA Landing

Closest report is Airlake Airport, 9.5 nm (17.5 km) ENE. Retrieved 2021/07/24 23:35 UTC (17 minutes ago):

KLVN 242335Z AUTO 30010G15KT 10SM CLR 31/07 A2992 RMK AO2

Closest aviation forecast (TAF) to DKPA Landing

Forecast is more than 12 hours old.

Closest forecast is Airlake Airport, 9.5 nm (17.5 km) ENE. Retrieved 2018/02/05 00:21 UTC (3 years ago):

TAF KLVN 052320Z 0600/0624 27006KT P6SM FEW020 FM060200 31009KT P6SM FEW250 FM061700 22004KT P6SM FEW200 FM062200 22004KT P6SM OVC100 AMD NOT SKED